sensor_id;sensor_type;location;lat;lon;timestamp;P1;durP1;ratioP1;P2;durP2;ratioP2
64799;SDS011;51233;51.982;4.594;2023-02-11T00:00:37;22.55;;;4.93;;
64799;SDS011;51233;51.982;4.594;2023-02-11T00:03:37;21.27;;;4.88;;
64799;SDS011;51233;51.982;4.594;2023-02-11T00:06:41;23.15;;;4.93;;
64799;SDS011;51233;51.982;4.594;2023-02-11T00:09:41;19.55;;;4.57;;
64799;SDS011;51233;51.982;4.594;2023-02-11T00:12:41;24.65;;;4.15;;
64799;SDS011;51233;51.982;4.594;2023-02-11T00:15:42;18.15;;;4.28;;
64799;SDS011;51233;51.982;4.594;2023-02-11T00:18:42;18.25;;;5.43;;
64799;SDS011;51233;51.982;4.594;2023-02-11T00:21:42;20.30;;;3.95;;
64799;SDS011;51233;51.982;4.594;2023-02-11T00:24:42;20.73;;;4.57;;
64799;SDS011;51233;51.982;4.594;2023-02-11T00:27:43;16.50;;;4.53;;
64799;SDS011;51233;51.982;4.594;2023-02-11T00:30:43;24.00;;;5.50;;
64799;SDS011;51233;51.982;4.594;2023-02-11T00:33:43;17.30;;;5.20;;
64799;SDS011;51233;51.982;4.594;2023-02-11T00:36:46;21.00;;;5.53;;
64799;SDS011;51233;51.982;4.594;2023-02-11T00:39:48;16.60;;;4.35;;
64799;SDS011;51233;51.982;4.594;2023-02-11T00:42:52;12.98;;;3.53;;
64799;SDS011;51233;51.982;4.594;2023-02-11T00:45:52;16.98;;;4.97;;
64799;SDS011;51233;51.982;4.594;2023-02-11T00:48:52;25.08;;;5.10;;
64799;SDS011;51233;51.982;4.594;2023-02-11T00:51:56;17.52;;;4.72;;
64799;SDS011;51233;51.982;4.594;2023-02-11T00:54:56;18.98;;;4.85;;
64799;SDS011;51233;51.982;4.594;2023-02-11T00:57:56;14.13;;;4.40;;
64799;SDS011;51233;51.982;4.594;2023-02-11T01:00:58;17.27;;;4.80;;
64799;SDS011;51233;51.982;4.594;2023-02-11T01:03:59;19.17;;;4.43;;
64799;SDS011;51233;51.982;4.594;2023-02-11T01:06:59;19.08;;;4.53;;
64799;SDS011;51233;51.982;4.594;2023-02-11T01:09:59;19.50;;;4.80;;
64799;SDS011;51233;51.982;4.594;2023-02-11T01:13:05;20.20;;;5.00;;
64799;SDS011;51233;51.982;4.594;2023-02-11T01:16:06;15.30;;;4.13;;
64799;SDS011;51233;51.982;4.594;2023-02-11T01:19:06;24.02;;;5.28;;
64799;SDS011;51233;51.982;4.594;2023-02-11T01:22:07;17.33;;;4.32;;
64799;SDS011;51233;51.982;4.594;2023-02-11T01:25:07;19.23;;;4.50;;
64799;SDS011;51233;51.982;4.594;2023-02-11T01:28:21;16.08;;;4.32;;
64799;SDS011;51233;51.982;4.594;2023-02-11T01:31:22;20.17;;;4.50;;
64799;SDS011;51233;51.982;4.594;2023-02-11T01:34:22;20.10;;;5.50;;
64799;SDS011;51233;51.982;4.594;2023-02-11T01:37:22;19.80;;;4.88;;
64799;SDS011;51233;51.982;4.594;2023-02-11T01:40:22;16.10;;;5.00;;
64799;SDS011;51233;51.982;4.594;2023-02-11T01:43:23;19.10;;;5.13;;
64799;SDS011;51233;51.982;4.594;2023-02-11T01:46:28;13.18;;;3.72;;
64799;SDS011;51233;51.982;4.594;2023-02-11T01:49:30;17.63;;;5.07;;
64799;SDS011;51233;51.982;4.594;2023-02-11T01:52:32;23.43;;;5.17;;
64799;SDS011;51233;51.982;4.594;2023-02-11T01:55:33;17.20;;;4.25;;
64799;SDS011;51233;51.982;4.594;2023-02-11T01:58:52;18.73;;;4.57;;
64799;SDS011;51233;51.982;4.594;2023-02-11T02:01:57;19.45;;;5.30;;
64799;SDS011;51233;51.982;4.594;2023-02-11T02:11:31;16.35;;;4.15;;
64799;SDS011;51233;51.982;4.594;2023-02-11T02:14:31;13.93;;;5.05;;
64799;SDS011;51233;51.982;4.594;2023-02-11T02:17:35;19.63;;;5.00;;
64799;SDS011;51233;51.982;4.594;2023-02-11T02:36:39;21.10;;;5.75;;
64799;SDS011;51233;51.982;4.594;2023-02-11T02:39:42;16.67;;;4.70;;
64799;SDS011;51233;51.982;4.594;2023-02-11T02:42:44;18.23;;;5.00;;
64799;SDS011;51233;51.982;4.594;2023-02-11T02:45:45;18.95;;;5.53;;
64799;SDS011;51233;51.982;4.594;2023-02-11T02:48:45;19.45;;;5.82;;
64799;SDS011;51233;51.982;4.594;2023-02-11T02:55:10;16.98;;;5.53;;
64799;SDS011;51233;51.982;4.594;2023-02-11T03:04:53;16.85;;;5.65;;
64799;SDS011;51233;51.982;4.594;2023-02-11T03:08:06;18.63;;;6.35;;
64799;SDS011;51233;51.982;4.594;2023-02-11T03:11:13;20.58;;;5.78;;
64799;SDS011;51233;51.982;4.594;2023-02-11T03:14:14;18.17;;;6.28;;
64799;SDS011;51233;51.982;4.594;2023-02-11T03:17:16;19.63;;;6.22;;
64799;SDS011;51233;51.982;4.594;2023-02-11T03:20:17;17.13;;;6.75;;
64799;SDS011;51233;51.982;4.594;2023-02-11T03:26:29;20.23;;;6.45;;
64799;SDS011;51233;51.982;4.594;2023-02-11T03:29:42;24.02;;;6.88;;
64799;SDS011;51233;51.982;4.594;2023-02-11T03:32:49;25.67;;;6.30;;
64799;SDS011;51233;51.982;4.594;2023-02-11T03:35:52;21.75;;;7.18;;
64799;SDS011;51233;51.982;4.594;2023-02-11T03:38:55;16.73;;;6.28;;
64799;SDS011;51233;51.982;4.594;2023-02-11T03:41:55;19.50;;;6.90;;
64799;SDS011;51233;51.982;4.594;2023-02-11T03:44:58;20.48;;;6.55;;
64799;SDS011;51233;51.982;4.594;2023-02-11T03:48:02;19.02;;;6.25;;
64799;SDS011;51233;51.982;4.594;2023-02-11T03:51:05;20.67;;;6.90;;
64799;SDS011;51233;51.982;4.594;2023-02-11T03:54:08;19.80;;;6.65;;
64799;SDS011;51233;51.982;4.594;2023-02-11T03:57:09;20.08;;;7.32;;
64799;SDS011;51233;51.982;4.594;2023-02-11T04:00:10;23.87;;;7.07;;
64799;SDS011;51233;51.982;4.594;2023-02-11T04:03:10;22.60;;;7.53;;
64799;SDS011;51233;51.982;4.594;2023-02-11T04:06:11;21.33;;;6.65;;
64799;SDS011;51233;51.982;4.594;2023-02-11T04:09:11;19.33;;;6.60;;
64799;SDS011;51233;51.982;4.594;2023-02-11T04:12:11;20.17;;;7.20;;
64799;SDS011;51233;51.982;4.594;2023-02-11T04:15:11;20.77;;;7.18;;
64799;SDS011;51233;51.982;4.594;2023-02-11T04:18:12;16.67;;;6.28;;
64799;SDS011;51233;51.982;4.594;2023-02-11T04:21:12;17.20;;;6.43;;
64799;SDS011;51233;51.982;4.594;2023-02-11T04:24:12;24.35;;;6.40;;
64799;SDS011;51233;51.982;4.594;2023-02-11T04:27:12;20.33;;;7.28;;
64799;SDS011;51233;51.982;4.594;2023-02-11T04:30:13;20.75;;;7.85;;
64799;SDS011;51233;51.982;4.594;2023-02-11T04:33:13;18.05;;;7.22;;
64799;SDS011;51233;51.982;4.594;2023-02-11T04:36:16;24.70;;;7.40;;
64799;SDS011;51233;51.982;4.594;2023-02-11T04:39:16;27.50;;;9.00;;
64799;SDS011;51233;51.982;4.594;2023-02-11T04:42:16;21.80;;;8.52;;
64799;SDS011;51233;51.982;4.594;2023-02-11T04:45:17;22.60;;;8.48;;
64799;SDS011;51233;51.982;4.594;2023-02-11T04:48:17;19.75;;;8.15;;
64799;SDS011;51233;51.982;4.594;2023-02-11T04:51:17;20.40;;;8.32;;
64799;SDS011;51233;51.982;4.594;2023-02-11T04:54:17;24.13;;;9.83;;
64799;SDS011;51233;51.982;4.594;2023-02-11T04:57:17;24.70;;;9.50;;
64799;SDS011;51233;51.982;4.594;2023-02-11T05:00:18;22.88;;;9.55;;
64799;SDS011;51233;51.982;4.594;2023-02-11T05:03:18;21.67;;;9.70;;
64799;SDS011;51233;51.982;4.594;2023-02-11T05:06:18;26.23;;;11.48;;
64799;SDS011;51233;51.982;4.594;2023-02-11T05:09:18;22.65;;;8.95;;
64799;SDS011;51233;51.982;4.594;2023-02-11T05:12:18;20.33;;;10.30;;
64799;SDS011;51233;51.982;4.594;2023-02-11T05:15:25;25.58;;;11.82;;
64799;SDS011;51233;51.982;4.594;2023-02-11T05:18:25;20.65;;;11.65;;
64799;SDS011;51233;51.982;4.594;2023-02-11T05:21:25;21.52;;;11.10;;
64799;SDS011;51233;51.982;4.594;2023-02-11T05:24:26;20.02;;;10.27;;
64799;SDS011;51233;51.982;4.594;2023-02-11T05:27:26;19.13;;;10.75;;
64799;SDS011;51233;51.982;4.594;2023-02-11T05:30:26;25.63;;;11.40;;
64799;SDS011;51233;51.982;4.594;2023-02-11T05:33:26;20.42;;;11.85;;
64799;SDS011;51233;51.982;4.594;2023-02-11T05:36:27;26.70;;;12.65;;
64799;SDS011;51233;51.982;4.594;2023-02-11T05:39:27;23.02;;;11.25;;
64799;SDS011;51233;51.982;4.594;2023-02-11T05:42:27;19.50;;;12.00;;
64799;SDS011;51233;51.982;4.594;2023-02-11T05:45:30;23.83;;;13.15;;
64799;SDS011;51233;51.982;4.594;2023-02-11T05:48:31;21.60;;;12.75;;
64799;SDS011;51233;51.982;4.594;2023-02-11T05:51:31;18.50;;;11.23;;
64799;SDS011;51233;51.982;4.594;2023-02-11T05:54:31;19.90;;;11.55;;
64799;SDS011;51233;51.982;4.594;2023-02-11T05:57:31;21.75;;;12.23;;
64799;SDS011;51233;51.982;4.594;2023-02-11T06:00:32;23.60;;;11.80;;
64799;SDS011;51233;51.982;4.594;2023-02-11T06:03:35;23.25;;;13.18;;
64799;SDS011;51233;51.982;4.594;2023-02-11T06:06:35;21.77;;;13.15;;
64799;SDS011;51233;51.982;4.594;2023-02-11T06:09:35;21.17;;;11.30;;
64799;SDS011;51233;51.982;4.594;2023-02-11T06:12:36;19.05;;;11.75;;
64799;SDS011;51233;51.982;4.594;2023-02-11T06:15:36;19.38;;;10.82;;
64799;SDS011;51233;51.982;4.594;2023-02-11T06:18:36;20.27;;;11.95;;
64799;SDS011;51233;51.982;4.594;2023-02-11T06:21:37;21.73;;;11.30;;
64799;SDS011;51233;51.982;4.594;2023-02-11T06:24:37;23.00;;;12.65;;
64799;SDS011;51233;51.982;4.594;2023-02-11T06:27:37;20.50;;;11.43;;
64799;SDS011;51233;51.982;4.594;2023-02-11T06:30:38;25.83;;;13.15;;
64799;SDS011;51233;51.982;4.594;2023-02-11T06:33:40;22.15;;;13.02;;
64799;SDS011;51233;51.982;4.594;2023-02-11T06:36:41;20.75;;;12.93;;
64799;SDS011;51233;51.982;4.594;2023-02-11T06:39:43;27.02;;;14.05;;
64799;SDS011;51233;51.982;4.594;2023-02-11T06:42:43;22.42;;;12.63;;
64799;SDS011;51233;51.982;4.594;2023-02-11T06:45:58;24.33;;;14.38;;
64799;SDS011;51233;51.982;4.594;2023-02-11T06:48:58;21.67;;;14.85;;
64799;SDS011;51233;51.982;4.594;2023-02-11T06:52:05;25.85;;;14.15;;
64799;SDS011;51233;51.982;4.594;2023-02-11T06:55:05;22.67;;;13.60;;
64799;SDS011;51233;51.982;4.594;2023-02-11T06:58:05;24.60;;;13.77;;
64799;SDS011;51233;51.982;4.594;2023-02-11T07:01:06;20.05;;;13.63;;
64799;SDS011;51233;51.982;4.594;2023-02-11T07:04:06;27.00;;;13.73;;
64799;SDS011;51233;51.982;4.594;2023-02-11T07:07:07;24.67;;;13.75;;
64799;SDS011;51233;51.982;4.594;2023-02-11T07:10:07;25.58;;;13.48;;
64799;SDS011;51233;51.982;4.594;2023-02-11T07:13:07;23.17;;;13.57;;
64799;SDS011;51233;51.982;4.594;2023-02-11T07:16:09;30.95;;;14.45;;
64799;SDS011;51233;51.982;4.594;2023-02-11T07:19:09;24.25;;;13.85;;
64799;SDS011;51233;51.982;4.594;2023-02-11T07:22:09;20.35;;;13.38;;
64799;SDS011;51233;51.982;4.594;2023-02-11T07:25:10;21.20;;;12.90;;
64799;SDS011;51233;51.982;4.594;2023-02-11T07:28:10;21.58;;;12.85;;
64799;SDS011;51233;51.982;4.594;2023-02-11T07:34:10;21.70;;;12.77;;
64799;SDS011;51233;51.982;4.594;2023-02-11T07:37:10;21.02;;;11.95;;
64799;SDS011;51233;51.982;4.594;2023-02-11T07:40:10;25.02;;;13.05;;
64799;SDS011;51233;51.982;4.594;2023-02-11T07:43:11;22.43;;;13.33;;
64799;SDS011;51233;51.982;4.594;2023-02-11T07:46:12;21.67;;;13.38;;
64799;SDS011;51233;51.982;4.594;2023-02-11T07:49:12;21.10;;;13.95;;
64799;SDS011;51233;51.982;4.594;2023-02-11T07:52:13;19.33;;;12.38;;
64799;SDS011;51233;51.982;4.594;2023-02-11T07:55:16;23.33;;;13.70;;
64799;SDS011;51233;51.982;4.594;2023-02-11T07:58:16;19.97;;;14.20;;
64799;SDS011;51233;51.982;4.594;2023-02-11T08:01:17;18.80;;;13.13;;
64799;SDS011;51233;51.982;4.594;2023-02-11T08:04:18;20.05;;;13.95;;
64799;SDS011;51233;51.982;4.594;2023-02-11T08:07:18;22.08;;;14.80;;
64799;SDS011;51233;51.982;4.594;2023-02-11T08:10:19;20.00;;;14.90;;
64799;SDS011;51233;51.982;4.594;2023-02-11T08:13:19;25.17;;;15.70;;
64799;SDS011;51233;51.982;4.594;2023-02-11T08:16:21;24.55;;;15.90;;
64799;SDS011;51233;51.982;4.594;2023-02-11T08:19:21;22.95;;;14.80;;
64799;SDS011;51233;51.982;4.594;2023-02-11T08:22:22;21.05;;;14.27;;
64799;SDS011;51233;51.982;4.594;2023-02-11T08:25:22;18.90;;;14.15;;
64799;SDS011;51233;51.982;4.594;2023-02-11T08:28:22;25.02;;;14.45;;
64799;SDS011;51233;51.982;4.594;2023-02-11T08:31:23;22.50;;;13.52;;
64799;SDS011;51233;51.982;4.594;2023-02-11T08:34:24;19.75;;;14.25;;
64799;SDS011;51233;51.982;4.594;2023-02-11T08:37:24;17.33;;;13.30;;
64799;SDS011;51233;51.982;4.594;2023-02-11T08:40:24;21.07;;;12.63;;
64799;SDS011;51233;51.982;4.594;2023-02-11T08:43:24;19.73;;;13.97;;
64799;SDS011;51233;51.982;4.594;2023-02-11T08:46:25;19.45;;;13.77;;
64799;SDS011;51233;51.982;4.594;2023-02-11T08:49:25;19.83;;;13.17;;
64799;SDS011;51233;51.982;4.594;2023-02-11T08:52:25;19.02;;;12.98;;
64799;SDS011;51233;51.982;4.594;2023-02-11T08:55:25;21.30;;;13.33;;
64799;SDS011;51233;51.982;4.594;2023-02-11T08:58:25;22.23;;;13.90;;
64799;SDS011;51233;51.982;4.594;2023-02-11T09:01:27;15.73;;;11.97;;
64799;SDS011;51233;51.982;4.594;2023-02-11T09:04:28;17.30;;;11.63;;
64799;SDS011;51233;51.982;4.594;2023-02-11T09:07:31;19.23;;;12.27;;
64799;SDS011;51233;51.982;4.594;2023-02-11T09:10:31;16.38;;;11.60;;
64799;SDS011;51233;51.982;4.594;2023-02-11T09:13:32;16.37;;;11.23;;
64799;SDS011;51233;51.982;4.594;2023-02-11T09:16:33;17.20;;;11.43;;
64799;SDS011;51233;51.982;4.594;2023-02-11T09:19:34;12.63;;;9.50;;
64799;SDS011;51233;51.982;4.594;2023-02-11T09:22:36;18.05;;;9.98;;
64799;SDS011;51233;51.982;4.594;2023-02-11T09:25:40;15.32;;;9.10;;
64799;SDS011;51233;51.982;4.594;2023-02-11T09:28:40;13.75;;;9.02;;
64799;SDS011;51233;51.982;4.594;2023-02-11T09:31:40;12.98;;;8.52;;
64799;SDS011;51233;51.982;4.594;2023-02-11T09:34:41;11.57;;;8.70;;
64799;SDS011;51233;51.982;4.594;2023-02-11T09:37:41;11.90;;;8.48;;
64799;SDS011;51233;51.982;4.594;2023-02-11T09:40:44;10.20;;;7.22;;
64799;SDS011;51233;51.982;4.594;2023-02-11T09:43:45;8.98;;;7.68;;
64799;SDS011;51233;51.982;4.594;2023-02-11T09:46:46;12.82;;;8.02;;
64799;SDS011;51233;51.982;4.594;2023-02-11T09:49:49;11.45;;;8.18;;
64799;SDS011;51233;51.982;4.594;2023-02-11T09:53:01;10.63;;;7.63;;
64799;SDS011;51233;51.982;4.594;2023-02-11T09:56:08;11.85;;;7.82;;
64799;SDS011;51233;51.982;4.594;2023-02-11T09:59:12;11.60;;;7.65;;
64799;SDS011;51233;51.982;4.594;2023-02-11T10:02:23;12.60;;;7.28;;
64799;SDS011;51233;51.982;4.594;2023-02-11T10:05:37;9.27;;;6.35;;
64799;SDS011;51233;51.982;4.594;2023-02-11T10:08:48;11.10;;;6.95;;
64799;SDS011;51233;51.982;4.594;2023-02-11T10:11:57;10.35;;;7.07;;
64799;SDS011;51233;51.982;4.594;2023-02-11T10:21:11;10.18;;;6.60;;
64799;SDS011;51233;51.982;4.594;2023-02-11T10:24:15;9.48;;;6.60;;
64799;SDS011;51233;51.982;4.594;2023-02-11T10:27:16;9.97;;;6.73;;
64799;SDS011;51233;51.982;4.594;2023-02-11T10:30:20;11.43;;;7.10;;
64799;SDS011;51233;51.982;4.594;2023-02-11T10:36:27;10.27;;;6.40;;
64799;SDS011;51233;51.982;4.594;2023-02-11T10:39:28;7.57;;;6.18;;
64799;SDS011;51233;51.982;4.594;2023-02-11T10:42:28;10.55;;;6.55;;
64799;SDS011;51233;51.982;4.594;2023-02-11T10:45:33;9.23;;;6.20;;
64799;SDS011;51233;51.982;4.594;2023-02-11T10:48:47;6.88;;;5.78;;
64799;SDS011;51233;51.982;4.594;2023-02-11T10:51:49;8.77;;;6.55;;
64799;SDS011;51233;51.982;4.594;2023-02-11T10:54:59;9.32;;;6.10;;
64799;SDS011;51233;51.982;4.594;2023-02-11T10:58:00;8.90;;;5.65;;
64799;SDS011;51233;51.982;4.594;2023-02-11T11:01:00;8.43;;;5.75;;
64799;SDS011;51233;51.982;4.594;2023-02-11T11:04:01;7.30;;;5.63;;
64799;SDS011;51233;51.982;4.594;2023-02-11T11:10:25;9.27;;;6.70;;
64799;SDS011;51233;51.982;4.594;2023-02-11T11:13:27;8.25;;;6.38;;
64799;SDS011;51233;51.982;4.594;2023-02-11T11:16:34;9.88;;;7.00;;
64799;SDS011;51233;51.982;4.594;2023-02-11T11:19:34;11.20;;;7.57;;
64799;SDS011;51233;51.982;4.594;2023-02-11T11:22:38;8.93;;;6.32;;
64799;SDS011;51233;51.982;4.594;2023-02-11T11:25:40;8.57;;;6.80;;
64799;SDS011;51233;51.982;4.594;2023-02-11T11:29:06;7.45;;;5.18;;
64799;SDS011;51233;51.982;4.594;2023-02-11T11:32:04;7.10;;;6.40;;
64799;SDS011;51233;51.982;4.594;2023-02-11T11:35:16;6.63;;;5.72;;
64799;SDS011;51233;51.982;4.594;2023-02-11T11:38:19;6.10;;;4.70;;
64799;SDS011;51233;51.982;4.594;2023-02-11T11:41:24;8.52;;;6.00;;
64799;SDS011;51233;51.982;4.594;2023-02-11T11:44:29;10.65;;;5.82;;
64799;SDS011;51233;51.982;4.594;2023-02-11T11:50:33;8.65;;;5.68;;
64799;SDS011;51233;51.982;4.594;2023-02-11T11:53:44;8.57;;;6.35;;
64799;SDS011;51233;51.982;4.594;2023-02-11T11:56:52;7.70;;;5.38;;
64799;SDS011;51233;51.982;4.594;2023-02-11T11:59:56;7.35;;;4.53;;
64799;SDS011;51233;51.982;4.594;2023-02-11T12:09:03;7.68;;;5.82;;
64799;SDS011;51233;51.982;4.594;2023-02-11T12:34:22;9.57;;;5.90;;
64799;SDS011;51233;51.982;4.594;2023-02-11T12:37:28;7.75;;;5.90;;
64799;SDS011;51233;51.982;4.594;2023-02-11T12:43:41;9.20;;;6.30;;
64799;SDS011;51233;51.982;4.594;2023-02-11T12:46:55;6.93;;;5.85;;
64799;SDS011;51233;51.982;4.594;2023-02-11T12:56:46;7.13;;;5.60;;
64799;SDS011;51233;51.982;4.594;2023-02-11T13:03:10;8.70;;;5.72;;
64799;SDS011;51233;51.982;4.594;2023-02-11T13:06:13;6.47;;;5.70;;
64799;SDS011;51233;51.982;4.594;2023-02-11T13:09:16;6.65;;;5.18;;
64799;SDS011;51233;51.982;4.594;2023-02-11T13:12:17;8.85;;;5.68;;
64799;SDS011;51233;51.982;4.594;2023-02-11T13:15:45;8.65;;;5.72;;
64799;SDS011;51233;51.982;4.594;2023-02-11T13:18:48;6.65;;;4.93;;
64799;SDS011;51233;51.982;4.594;2023-02-11T13:21:55;8.68;;;4.80;;
64799;SDS011;51233;51.982;4.594;2023-02-11T13:25:06;7.05;;;5.05;;
64799;SDS011;51233;51.982;4.594;2023-02-11T13:28:18;6.07;;;4.50;;
64799;SDS011;51233;51.982;4.594;2023-02-11T13:31:21;4.80;;;3.60;;
64799;SDS011;51233;51.982;4.594;2023-02-11T13:34:52;6.43;;;5.05;;
64799;SDS011;51233;51.982;4.594;2023-02-11T13:37:45;7.20;;;3.33;;
64799;SDS011;51233;51.982;4.594;2023-02-11T13:47:11;3.95;;;3.47;;
64799;SDS011;51233;51.982;4.594;2023-02-11T13:50:22;7.43;;;4.53;;
64799;SDS011;51233;51.982;4.594;2023-02-11T13:53:23;5.97;;;3.80;;
64799;SDS011;51233;51.982;4.594;2023-02-11T13:56:30;4.97;;;3.70;;
64799;SDS011;51233;51.982;4.594;2023-02-11T14:02:33;4.33;;;3.40;;
64799;SDS011;51233;51.982;4.594;2023-02-11T14:09:34;4.53;;;3.85;;
64799;SDS011;51233;51.982;4.594;2023-02-11T14:12:34;6.13;;;3.80;;
64799;SDS011;51233;51.982;4.594;2023-02-11T14:15:38;5.60;;;3.53;;
64799;SDS011;51233;51.982;4.594;2023-02-11T14:21:51;7.18;;;3.55;;
64799;SDS011;51233;51.982;4.594;2023-02-11T14:40:20;2.80;;;2.53;;
64799;SDS011;51233;51.982;4.594;2023-02-11T14:43:35;1.85;;;1.75;;
64799;SDS011;51233;51.982;4.594;2023-02-11T14:46:37;2.95;;;2.60;;
64799;SDS011;51233;51.982;4.594;2023-02-11T14:49:38;6.03;;;3.10;;
64799;SDS011;51233;51.982;4.594;2023-02-11T14:52:38;5.90;;;3.37;;
64799;SDS011;51233;51.982;4.594;2023-02-11T14:55:39;5.13;;;2.97;;
64799;SDS011;51233;51.982;4.594;2023-02-11T14:58:44;6.75;;;3.83;;
64799;SDS011;51233;51.982;4.594;2023-02-11T15:01:47;4.32;;;2.78;;
64799;SDS011;51233;51.982;4.594;2023-02-11T15:04:48;3.72;;;2.83;;
64799;SDS011;51233;51.982;4.594;2023-02-11T15:07:57;7.50;;;3.40;;
64799;SDS011;51233;51.982;4.594;2023-02-11T15:11:01;3.42;;;2.58;;
64799;SDS011;51233;51.982;4.594;2023-02-11T15:14:15;3.67;;;2.50;;
64799;SDS011;51233;51.982;4.594;2023-02-11T15:17:20;7.85;;;3.40;;
64799;SDS011;51233;51.982;4.594;2023-02-11T15:20:23;3.78;;;3.22;;
64799;SDS011;51233;51.982;4.594;2023-02-11T15:23:25;4.75;;;3.33;;
64799;SDS011;51233;51.982;4.594;2023-02-11T15:26:26;5.63;;;3.55;;
64799;SDS011;51233;51.982;4.594;2023-02-11T15:29:27;4.33;;;3.03;;
64799;SDS011;51233;51.982;4.594;2023-02-11T15:32:27;6.05;;;3.30;;
64799;SDS011;51233;51.982;4.594;2023-02-11T15:35:32;4.85;;;2.83;;
64799;SDS011;51233;51.982;4.594;2023-02-11T15:38:33;5.22;;;3.13;;
64799;SDS011;51233;51.982;4.594;2023-02-11T15:41:37;4.75;;;2.80;;
64799;SDS011;51233;51.982;4.594;2023-02-11T15:44:37;5.57;;;3.25;;
64799;SDS011;51233;51.982;4.594;2023-02-11T15:47:37;5.93;;;3.20;;
64799;SDS011;51233;51.982;4.594;2023-02-11T15:50:38;5.03;;;2.90;;
64799;SDS011;51233;51.982;4.594;2023-02-11T15:53:40;3.78;;;2.97;;
64799;SDS011;51233;51.982;4.594;2023-02-11T15:56:42;3.88;;;2.70;;
64799;SDS011;51233;51.982;4.594;2023-02-11T15:59:46;4.47;;;2.80;;
64799;SDS011;51233;51.982;4.594;2023-02-11T16:02:47;4.82;;;2.90;;
64799;SDS011;51233;51.982;4.594;2023-02-11T16:05:50;3.33;;;2.72;;
64799;SDS011;51233;51.982;4.594;2023-02-11T16:09:03;3.67;;;2.75;;
64799;SDS011;51233;51.982;4.594;2023-02-11T16:12:18;4.43;;;2.63;;
64799;SDS011;51233;51.982;4.594;2023-02-11T16:18:54;4.70;;;2.80;;
64799;SDS011;51233;51.982;4.594;2023-02-11T16:21:57;4.07;;;3.13;;
64799;SDS011;51233;51.982;4.594;2023-02-11T16:24:58;5.53;;;3.10;;
64799;SDS011;51233;51.982;4.594;2023-02-11T16:27:58;3.20;;;2.60;;
64799;SDS011;51233;51.982;4.594;2023-02-11T16:30:58;4.68;;;2.50;;
64799;SDS011;51233;51.982;4.594;2023-02-11T16:33:59;3.70;;;2.93;;
64799;SDS011;51233;51.982;4.594;2023-02-11T16:37:02;3.15;;;2.85;;
64799;SDS011;51233;51.982;4.594;2023-02-11T16:40:03;6.15;;;3.20;;
64799;SDS011;51233;51.982;4.594;2023-02-11T16:43:03;5.78;;;2.90;;
64799;SDS011;51233;51.982;4.594;2023-02-11T16:46:04;4.93;;;2.88;;
64799;SDS011;51233;51.982;4.594;2023-02-11T16:49:08;4.55;;;2.67;;
64799;SDS011;51233;51.982;4.594;2023-02-11T16:52:12;5.32;;;3.17;;
64799;SDS011;51233;51.982;4.594;2023-02-11T16:55:13;7.95;;;3.13;;
64799;SDS011;51233;51.982;4.594;2023-02-11T16:58:13;4.18;;;3.38;;
64799;SDS011;51233;51.982;4.594;2023-02-11T17:01:13;6.37;;;3.20;;
64799;SDS011;51233;51.982;4.594;2023-02-11T17:04:34;4.88;;;3.38;;
64799;SDS011;51233;51.982;4.594;2023-02-11T17:07:34;4.45;;;3.00;;
64799;SDS011;51233;51.982;4.594;2023-02-11T17:10:34;4.47;;;3.30;;
64799;SDS011;51233;51.982;4.594;2023-02-11T17:13:36;5.63;;;3.40;;
64799;SDS011;51233;51.982;4.594;2023-02-11T17:19:38;7.63;;;3.60;;
64799;SDS011;51233;51.982;4.594;2023-02-11T17:22:39;5.00;;;3.50;;
64799;SDS011;51233;51.982;4.594;2023-02-11T17:25:39;8.15;;;3.63;;
64799;SDS011;51233;51.982;4.594;2023-02-11T17:28:39;5.32;;;3.63;;
64799;SDS011;51233;51.982;4.594;2023-02-11T17:31:40;4.60;;;4.20;;
64799;SDS011;51233;51.982;4.594;2023-02-11T17:34:40;8.18;;;4.30;;
64799;SDS011;51233;51.982;4.594;2023-02-11T17:37:40;6.05;;;4.40;;
64799;SDS011;51233;51.982;4.594;2023-02-11T17:40:40;9.07;;;6.20;;
64799;SDS011;51233;51.982;4.594;2023-02-11T17:43:40;5.97;;;3.97;;
64799;SDS011;51233;51.982;4.594;2023-02-11T17:46:41;8.73;;;6.40;;
64799;SDS011;51233;51.982;4.594;2023-02-11T17:49:42;7.25;;;4.80;;
64799;SDS011;51233;51.982;4.594;2023-02-11T17:52:42;8.82;;;7.82;;
64799;SDS011;51233;51.982;4.594;2023-02-11T17:55:42;7.10;;;4.73;;
64799;SDS011;51233;51.982;4.594;2023-02-11T17:58:45;7.97;;;7.03;;
64799;SDS011;51233;51.982;4.594;2023-02-11T18:01:46;8.55;;;5.53;;
64799;SDS011;51233;51.982;4.594;2023-02-11T18:04:46;5.10;;;4.22;;
64799;SDS011;51233;51.982;4.594;2023-02-11T18:07:46;6.72;;;5.20;;
64799;SDS011;51233;51.982;4.594;2023-02-11T18:10:47;6.43;;;5.80;;
64799;SDS011;51233;51.982;4.594;2023-02-11T18:13:50;9.50;;;7.50;;
64799;SDS011;51233;51.982;4.594;2023-02-11T18:16:53;8.80;;;5.70;;
64799;SDS011;51233;51.982;4.594;2023-02-11T18:19:54;8.80;;;6.18;;
64799;SDS011;51233;51.982;4.594;2023-02-11T18:22:54;9.07;;;7.10;;
64799;SDS011;51233;51.982;4.594;2023-02-11T18:25:54;8.77;;;5.03;;
64799;SDS011;51233;51.982;4.594;2023-02-11T18:28:56;11.73;;;9.27;;
64799;SDS011;51233;51.982;4.594;2023-02-11T18:31:57;7.70;;;4.45;;
64799;SDS011;51233;51.982;4.594;2023-02-11T18:34:57;6.82;;;4.35;;
64799;SDS011;51233;51.982;4.594;2023-02-11T18:37:57;6.72;;;4.43;;
64799;SDS011;51233;51.982;4.594;2023-02-11T18:40:57;6.80;;;4.13;;
64799;SDS011;51233;51.982;4.594;2023-02-11T18:43:57;5.80;;;4.07;;
64799;SDS011;51233;51.982;4.594;2023-02-11T18:47:01;5.55;;;3.75;;
64799;SDS011;51233;51.982;4.594;2023-02-11T18:50:02;8.23;;;4.43;;
64799;SDS011;51233;51.982;4.594;2023-02-11T18:53:03;8.70;;;5.05;;
64799;SDS011;51233;51.982;4.594;2023-02-11T18:56:07;9.95;;;5.10;;
64799;SDS011;51233;51.982;4.594;2023-02-11T18:59:07;8.75;;;4.97;;
64799;SDS011;51233;51.982;4.594;2023-02-11T19:02:08;7.53;;;4.85;;
64799;SDS011;51233;51.982;4.594;2023-02-11T19:05:08;8.75;;;4.68;;
64799;SDS011;51233;51.982;4.594;2023-02-11T19:08:08;6.68;;;4.95;;
64799;SDS011;51233;51.982;4.594;2023-02-11T19:11:08;6.78;;;4.70;;
64799;SDS011;51233;51.982;4.594;2023-02-11T19:14:09;8.18;;;5.28;;
64799;SDS011;51233;51.982;4.594;2023-02-11T19:17:09;9.38;;;5.32;;
64799;SDS011;51233;51.982;4.594;2023-02-11T19:20:11;12.65;;;9.02;;
64799;SDS011;51233;51.982;4.594;2023-02-11T19:23:14;10.90;;;7.53;;
64799;SDS011;51233;51.982;4.594;2023-02-11T19:26:14;7.07;;;6.10;;
64799;SDS011;51233;51.982;4.594;2023-02-11T19:29:14;8.93;;;6.60;;
64799;SDS011;51233;51.982;4.594;2023-02-11T19:32:14;10.90;;;7.60;;
64799;SDS011;51233;51.982;4.594;2023-02-11T19:35:15;11.70;;;6.93;;
64799;SDS011;51233;51.982;4.594;2023-02-11T19:38:15;10.00;;;5.50;;
64799;SDS011;51233;51.982;4.594;2023-02-11T19:41:16;9.88;;;4.78;;
64799;SDS011;51233;51.982;4.594;2023-02-11T19:44:22;8.45;;;5.30;;
64799;SDS011;51233;51.982;4.594;2023-02-11T19:47:22;9.03;;;6.57;;
64799;SDS011;51233;51.982;4.594;2023-02-11T19:50:26;9.90;;;7.50;;
64799;SDS011;51233;51.982;4.594;2023-02-11T19:53:26;9.80;;;6.70;;
64799;SDS011;51233;51.982;4.594;2023-02-11T19:56:26;8.07;;;5.63;;
64799;SDS011;51233;51.982;4.594;2023-02-11T19:59:29;8.93;;;6.05;;
64799;SDS011;51233;51.982;4.594;2023-02-11T20:02:32;10.18;;;5.85;;
64799;SDS011;51233;51.982;4.594;2023-02-11T20:05:33;7.65;;;5.50;;
64799;SDS011;51233;51.982;4.594;2023-02-11T20:08:33;7.10;;;6.32;;
64799;SDS011;51233;51.982;4.594;2023-02-11T20:11:34;9.37;;;5.57;;
64799;SDS011;51233;51.982;4.594;2023-02-11T20:14:34;8.57;;;4.60;;
64799;SDS011;51233;51.982;4.594;2023-02-11T20:17:34;8.53;;;5.13;;
64799;SDS011;51233;51.982;4.594;2023-02-11T20:20:36;6.47;;;4.63;;